^^
Datos históricos de la estación: Murcia-Puente Tocinos
Diario Informe para Septiembre 5, 2019 Unidades:  Ingés    Métrico   Ambas
Diario Semanal Mensual Anual
  Máxima: Mínima: Promedio:
Temperatura: 84 °F 64.2 °F 73.2 °F
Punto de rocio: 63.3 °F 50.4 °F 56.3 °F
Humedad: 77% 36.1% 57%
Velocidad viento: 11.4mph 1.4mph 5mph
Racha viento: 20mph - -
Viento- - SE
Presión: 30 in 29.9 in -
Precipitación: 0 in    
 
 
Tabla de datos para Septiembre 5, 2019
Hora Temperatura Punto de rocio Presión Viento Velocidad viento Racha viento Humedad Intensidad lluvia(por hora) Nubes
00:04 72.1 °F 53.4 °F 29.9 in Sur 3.6 mph 6 mph 51.7% 0 in
00:09 72.1 °F 53.8 °F 29.9 in Sur 3.5 mph 5.2 mph 52.5% 0 in
00:14 72.1 °F 54.5 °F 29.9 in SSO 3.1 mph 6 mph 53.7% 0 in
00:19 72.1 °F 55 °F 29.9 in SO 3.2 mph 6 mph 55% 0 in
00:24 72.1 °F 55.6 °F 29.9 in OSO 3.6 mph 5.9 mph 55.9% 0 in
00:29 72.1 °F 55.9 °F 29.9 in OSO 3.5 mph 6 mph 56.7% 0 in
00:34 72 °F 55.6 °F 29.9 in OSO 2.9 mph 6 mph 56.4% 0 in
00:39 72 °F 55.2 °F 29.9 in OSO 2.8 mph 5 mph 56% 0 in
00:44 71.6 °F 55 °F 29.9 in OSO 2 mph 4.6 mph 56% 0 in
00:49 71.4 °F 55 °F 29.9 in SO 2 mph 5 mph 56.1% 0 in
00:54 71.2 °F 55.2 °F 29.9 in SSO 2 mph 4.6 mph 57% 0 in
00:59 71.2 °F 55.6 °F 29.9 in SSE 2.2 mph 5.9 mph 58% 0 in
01:04 71.1 °F 56.7 °F 29.9 in SSE 2.9 mph 6.2 mph 60.2% 0 in
01:09 70.9 °F 57.4 °F 29.9 in Sur 3 mph 6.4 mph 62.4% 0 in
01:14 70.5 °F 57.9 °F 29.9 in Sur 4.3 mph 7 mph 64% 0 in
01:19 70.3 °F 57.6 °F 29.9 in Sur 4.3 mph 6 mph 63.8% 0 in
01:24 70.3 °F 57.4 °F 29.9 in SO 4 mph 6 mph 63.6% 0 in
01:29 70.3 °F 57.2 °F 29.9 in Sur 3.9 mph 5 mph 63.1% 0 in
01:34 70.2 °F 55.9 °F 29.9 in SE 2.9 mph 5 mph 61% 0 in
01:39 69.8 °F 55.6 °F 29.9 in SSE 2.9 mph 5 mph 61% 0 in
01:44 69.4 °F 55.6 °F 29.9 in SE 2.4 mph 5 mph 61.5% 0 in
01:49 69.3 °F 55.8 °F 29.9 in SSE 2.4 mph 5 mph 62% 0 in
01:54 69.1 °F 55.8 °F 29.9 in SSE 2.4 mph 5 mph 62.4% 0 in
01:59 69.1 °F 55.9 °F 29.9 in SSE 2.3 mph 4 mph 63% 0 in
02:04 69.1 °F 55.9 °F 29.9 in OSO 2 mph 4.6 mph 63% 0 in
02:09 69.1 °F 56.1 °F 29.9 in NO 2 mph 5 mph 63.7% 0 in
02:14 68.7 °F 56.7 °F 29.9 in ONO 2 mph 4 mph 65.4% 0 in
02:19 68.7 °F 57.7 °F 29.9 in OSO 2.1 mph 5.2 mph 68.2% 0 in
02:24 68.5 °F 58.3 °F 29.9 in SO 2.4 mph 5 mph 69.7% 0 in
02:29 68.5 °F 58.5 °F 29.9 in SO 2.4 mph 5 mph 70% 0 in
02:34 68.5 °F 58.3 °F 29.9 in SSO 2.9 mph 5 mph 70% 0 in
02:39 68.4 °F 57.9 °F 29.9 in SSO 2.9 mph 5.2 mph 69.3% 0 in
02:44 68.5 °F 57.7 °F 29.9 in SSE 2.9 mph 6.2 mph 68.4% 0 in
02:49 68.5 °F 57.6 °F 29.9 in SSE 3 mph 6 mph 68% 0 in
02:54 68.4 °F 57.7 °F 29.9 in SSE 3.6 mph 6 mph 68.9% 0 in
02:59 68 °F 57.7 °F 29.9 in Sur 3.6 mph 9.2 mph 69.8% 0 in
03:04 67.6 °F 57.9 °F 29.9 in Sur 3.6 mph 9 mph 71.2% 0 in
03:09 67.6 °F 58.1 °F 29.9 in Sur 3.7 mph 7.4 mph 71.3% 0 in
03:14 67.6 °F 57.9 °F 29.9 in Sur 4.7 mph 8.5 mph 70.9% 0 in
03:19 67.6 °F 57.4 °F 29.9 in Sur 4.8 mph 9 mph 70% 0 in
03:24 67.5 °F 57.2 °F 29.9 in Sur 5.4 mph 9.2 mph 69.6% 0 in
03:29 67.3 °F 56.7 °F 29.9 in Sur 5.5 mph 10.4 mph 68.5% 0 in
03:34 67.3 °F 56.3 °F 29.9 in SSO 6.2 mph 10 mph 67.8% 0 in
03:39 67.3 °F 55.8 °F 29.9 in SSO 6.1 mph 8.5 mph 66.7% 0 in
03:44 67.5 °F 55.6 °F 29.9 in SSO 5.4 mph 9.2 mph 65.6% 0 in
03:49 67.6 °F 55.2 °F 29.9 in SO 5.4 mph 9 mph 64.7% 0 in
03:54 67.6 °F 55 °F 29.9 in SO 5.2 mph 8 mph 64% 0 in
03:59 67.6 °F 54.9 °F 29.9 in SO 5 mph 6.2 mph 63.8% 0 in
04:04 67.5 °F 54.5 °F 29.9 in SSO 4.3 mph 6 mph 63% 0 in
04:09 67.5 °F 54.3 °F 29.9 in SSO 4.3 mph 8.5 mph 63% 0 in
04:14 67.5 °F 54.1 °F 29.9 in SSO 4.7 mph 9 mph 62.3% 0 in
04:19 67.5 °F 54.1 °F 29.9 in OSO 4.6 mph 7 mph 62.4% 0 in
04:24 67.5 °F 54 °F 29.9 in OSO 4 mph 5.4 mph 62% 0 in
04:29 67.5 °F 54 °F 29.9 in OSO 4 mph 6 mph 62% 0 in
04:34 67.5 °F 54 °F 29.9 in OSO 3.6 mph 6 mph 62% 0 in
04:39 67.3 °F 53.8 °F 29.9 in OSO 3.5 mph 5 mph 62% 0 in
04:44 67.3 °F 53.8 °F 29.9 in OSO 2.9 mph 5 mph 62% 0 in
04:49 66.9 °F 54 °F 29.9 in SO 2.9 mph 5 mph 62.9% 0 in
04:54 66.9 °F 53.8 °F 29.9 in OSO 2.9 mph 5 mph 63% 0 in
04:59 66.7 °F 53.8 °F 29.9 in OSO 2.8 mph 5 mph 63% 0 in
05:04 66.7 °F 53.8 °F 29.9 in OSO 2.4 mph 5 mph 63% 0 in
05:09 66.6 °F 53.8 °F 29.9 in OSO 2.3 mph 5 mph 63.4% 0 in
05:14 66.6 °F 54 °F 29.9 in OSO 1.8 mph 3.5 mph 64% 0 in
05:19 66.6 °F 54.1 °F 29.9 in OSO 1.7 mph 3 mph 64.5% 0 in
05:24 66.6 °F 54.9 °F 29.9 in SSE 1.4 mph 4.7 mph 66.2% 0 in
05:29 66.2 °F 55 °F 29.9 in Sur 1.6 mph 5.2 mph 67.2% 0 in
05:34 65.8 °F 55 °F 29.9 in SSE 2.9 mph 5.2 mph 68.3% 0 in
05:39 65.7 °F 55 °F 29.9 in Sur 3 mph 5.9 mph 69% 0 in
05:44 65.5 °F 55 °F 29.9 in SSO 3.6 mph 6 mph 69% 0 in
05:49 65.7 °F 55 °F 29.9 in SSO 3.6 mph 6 mph 69% 0 in
05:54 65.7 °F 55.2 °F 29.9 in SSO 3.6 mph 6 mph 68.9% 0 in
05:59 65.7 °F 54.9 °F 29.9 in SO 3.5 mph 5.2 mph 68% 0 in
06:04 65.8 °F 55 °F 29.9 in SSO 3.1 mph 5 mph 68% 0 in
06:09 65.8 °F 55 °F 29.9 in SSO 3 mph 4.6 mph 68% 0 in
06:14 65.8 °F 55 °F 29.9 in SO 2.4 mph 7.4 mph 68% 0 in
06:19 65.8 °F 54.9 °F 29.9 in SO 2.6 mph 8.1 mph 67.8% 0 in
06:24 65.8 °F 54.7 °F 29.9 in SSO 4 mph 7 mph 67% 0 in
06:29 65.7 °F 54.5 °F 29.9 in Sur 4 mph 6 mph 67% 0 in
06:34 65.7 °F 54.3 °F 29.9 in Sur 3.6 mph 6 mph 67% 0 in
06:39 65.3 °F 54.1 °F 29.9 in Sur 3.7 mph 6.9 mph 67% 0 in
06:44 64.9 °F 54 °F 29.9 in Sur 4 mph 7.4 mph 67.5% 0 in
06:49 64.6 °F 53.8 °F 29.9 in SSO 4.2 mph 7 mph 68% 0 in
06:54 64.4 °F 53.8 °F 29.9 in SSO 5.2 mph 7 mph 68.7% 0 in
06:59 64.2 °F 53.6 °F 29.9 in SO 4.8 mph 6 mph 68.3% 0 in
07:04 64.4 °F 53.6 °F 29.9 in SO 3.1 mph 6 mph 68% 0 in
07:09 64.4 °F 53.6 °F 29.9 in SO 3.1 mph 5 mph 68% 0 in
07:14 64.6 °F 53.4 °F 29.9 in SSO 3.1 mph 5.4 mph 67.2% 0 in
07:19 64.6 °F 53.4 °F 29.9 in SSO 3.2 mph 8.1 mph 67% 0 in
07:24 64.8 °F 53.4 °F 29.9 in SSO 4 mph 8.5 mph 66.7% 0 in
07:29 64.8 °F 53.1 °F 29.9 in SSO 4.1 mph 9 mph 66% 0 in
07:34 64.8 °F 53.1 °F 29.9 in SSO 4.7 mph 8.5 mph 66% 0 in
07:39 64.8 °F 53.1 °F 29.9 in SO 4.8 mph 9 mph 66% 0 in
07:44 64.8 °F 53.1 °F 29.9 in SO 5.2 mph 8 mph 66% 0 in
07:49 64.8 °F 53.1 °F 29.9 in SO 5 mph 6.4 mph 66% 0 in
07:54 64.6 °F 53.1 °F 29.9 in OSO 4 mph 7.6 mph 66% 0 in
07:59 64.8 °F 52.7 °F 29.9 in OSO 4.2 mph 9.7 mph 65% 0 in
08:04 64.8 °F 52.7 °F 29.9 in SO 5.2 mph 10 mph 65% 0 in
08:09 64.8 °F 52.7 °F 29.9 in OSO 5.1 mph 7 mph 65.1% 0 in
08:14 64.8 °F 52.7 °F 29.9 in SO 4.3 mph 7 mph 65% 0 in
08:19 64.9 °F 52.9 °F 29.9 in SO 4.2 mph 7 mph 65% 0 in
08:24 64.9 °F 52.9 °F 29.9 in SO 3.6 mph 6 mph 65% 0 in
08:29 64.9 °F 52.5 °F 29.9 in SSO 3.5 mph 5.2 mph 64% 0 in
08:34 65.1 °F 53.1 °F 29.9 in SSO 3.1 mph 5.8 mph 64.9% 0 in
08:39 65.1 °F 53.1 °F 29.9 in SO 3.2 mph 6 mph 65% 0 in
08:44 65.3 °F 52.7 °F 29.9 in SSO 3.6 mph 6.2 mph 64% 0 in
08:49 65.5 °F 52.7 °F 29.9 in SO 3.7 mph 6.9 mph 63.5% 0 in
08:54 65.7 °F 52.5 °F 29.9 in SSO 4 mph 7 mph 62.8% 0 in
08:59 65.8 °F 52.5 °F 29.9 in SO 4 mph 6.9 mph 62% 0 in
09:04 66.2 °F 52.5 °F 29.9 in OSO 4 mph 7 mph 61.4% 0 in
09:09 66.6 °F 52.2 °F 29.9 in SO 4 mph 6 mph 60% 0 in
09:14 66.7 °F 52.2 °F 29.9 in SO 3.6 mph 6.9 mph 59.6% 0 in
09:19 66.9 °F 52.2 °F 29.9 in SO 3.7 mph 7.4 mph 59% 0 in
09:24 67.3 °F 52.3 °F 29.9 in SO 4.3 mph 7.4 mph 58.6% 0 in
09:29 67.5 °F 52.2 °F 29.9 in SO 4.3 mph 7.4 mph 58% 0 in
09:34 67.6 °F 52 °F 29.9 in SO 4.3 mph 7 mph 57.1% 0 in
09:39 68 °F 51.8 °F 29.9 in SO 4.3 mph 7 mph 56.4% 0 in
09:44 68.4 °F 51.6 °F 29.9 in SO 4.3 mph 7 mph 55.4% 0 in
09:49 68.5 °F 51.6 °F 29.9 in SO 4.2 mph 6 mph 54.7% 0 in
09:54 68.9 °F 51.6 °F 29.9 in SO 3.6 mph 6 mph 54% 0 in
09:59 69.3 °F 51.1 °F 29.9 in OSO 3.6 mph 5.9 mph 52.5% 0 in
10:04 69.6 °F 50.9 °F 29.9 in OSO 3.6 mph 6 mph 51.3% 0 in
10:09 70 °F 51.1 °F 29.9 in SSO 3.6 mph 6 mph 51.1% 0 in
10:14 70.3 °F 51.1 °F 29.9 in SSO 3.6 mph 6 mph 50.3% 0 in
10:19 70.9 °F 50.7 °F 29.9 in SSO 3.5 mph 6.4 mph 48.8% 0 in
10:24 71.2 °F 50.5 °F 29.9 in SO 3.1 mph 7 mph 48% 0 in
10:29 71.6 °F 50.4 °F 29.9 in OSO 3.1 mph 6.2 mph 47.2% 0 in
10:34 72 °F 50.4 °F 29.9 in OSO 3.1 mph 6.2 mph 46.3% 0 in
10:39 72.5 °F 50.5 °F 29.9 in OSO 3.2 mph 6 mph 46% 0 in
10:44 72.9 °F 50.9 °F 29.9 in Oeste 3.6 mph 7.4 mph 45.8% 0 in
10:49 73 °F 50.9 °F 29.9 in OSO 3.7 mph 7 mph 45.8% 0 in
10:54 73 °F 50.5 °F 29.9 in Oeste 4.3 mph 8.1 mph 45% 0 in
10:59 73.2 °F 50.7 °F 29.9 in OSO 4.3 mph 8 mph 45% 0 in
11:04 73.6 °F 50.9 °F 29.9 in OSO 4.3 mph 7 mph 45% 0 in
11:09 73.8 °F 51.1 °F 29.9 in Oeste 4.3 mph 6.2 mph 45% 0 in
11:14 73.9 °F 51.1 °F 29.9 in Oeste 4 mph 6 mph 44.6% 0 in
11:19 74.5 °F 51.1 °F 30 in Oeste 3.8 mph 5.9 mph 44% 0 in
11:24 74.8 °F 50.7 °F 30 in OSO 2.4 mph 7.4 mph 43% 0 in
11:29 75.2 °F 50.9 °F 30 in SO 2.7 mph 7.4 mph 42.8% 0 in
11:34 75.6 °F 50.9 °F 30 in SSO 4.3 mph 7 mph 42% 0 in
11:39 76.1 °F 51.1 °F 29.9 in SSO 4.2 mph 6.2 mph 41.6% 0 in
11:44 76.5 °F 51.1 °F 29.9 in SO 3.6 mph 6 mph 41% 0 in
11:49 77.2 °F 51.4 °F 29.9 in SSO 3.4 mph 4.6 mph 40.7% 0 in
11:54 77.9 °F 51.3 °F 29.9 in SSE 2 mph 5.2 mph 39.4% 0 in
11:59 78.4 °F 50.9 °F 29.9 in SE 2.1 mph 5 mph 38.3% 0 in
12:04 79 °F 51.1 °F 29.9 in ESE 2.9 mph 6.9 mph 37.8% 0 in
12:09 79.2 °F 51.4 °F 29.9 in SE 2.9 mph 7 mph 38% 0 in
12:14 79.7 °F 51.4 °F 29.9 in ESE 3.1 mph 5 mph 37.4% 0 in
12:19 80.2 °F 51.4 °F 29.9 in ESE 3.1 mph 5.9 mph 37% 0 in
12:24 80.4 °F 51.3 °F 29.9 in ESE 3.1 mph 6 mph 36.3% 0 in
12:29 80.6 °F 52 °F 29.9 in NE 3.1 mph 6.9 mph 37% 0 in
12:34 80.6 °F 51.8 °F 29.9 in ENE 3.1 mph 8.5 mph 36.8% 0 in
12:39 80.2 °F 51.6 °F 29.9 in NE 3.5 mph 9.2 mph 37.1% 0 in
12:44 80.2 °F 52.2 °F 29.9 in NE 5.4 mph 9.2 mph 37.9% 0 in
12:49 80.4 °F 52.2 °F 30 in NE 5.2 mph 8 mph 37.5% 0 in
12:54 80.8 °F 52 °F 30 in NE 4 mph 8.5 mph 36.9% 0 in
12:59 80.6 °F 51.8 °F 30 in NE 4.2 mph 9.2 mph 36.9% 0 in
13:04 80.8 °F 52.2 °F 30 in NE 5.2 mph 9 mph 37% 0 in
13:09 81 °F 52.3 °F 30 in NE 5 mph 9.2 mph 37.1% 0 in
13:14 81.1 °F 52.3 °F 30 in NE 4.3 mph 9.2 mph 37% 0 in
13:19 81.3 °F 52.5 °F 30 in NE 4.3 mph 8.5 mph 37% 0 in
13:24 81.1 °F 51.8 °F 30 in NE 4.7 mph 10.7 mph 36.1% 0 in
13:29 81.1 °F 52.2 °F 30 in NE 5 mph 11 mph 36.8% 0 in
13:34 81.1 °F 52.2 °F 30 in NE 6.4 mph 11.5 mph 36.7% 0 in
13:39 81.3 °F 52.3 °F 29.9 in NE 6.2 mph 12 mph 36.6% 0 in
13:44 81.9 °F 53.1 °F 29.9 in NE 5.4 mph 11.8 mph 37.1% 0 in
13:49 82 °F 53.2 °F 29.9 in NE 5.5 mph 12 mph 37% 0 in
13:54 82 °F 53.8 °F 29.9 in NNE 5.9 mph 11.5 mph 37.7% 0 in
13:59 82.2 °F 54.1 °F 29.9 in NE 6 mph 12 mph 38% 0 in
14:04 82.2 °F 54.1 °F 29.9 in NE 6.2 mph 12 mph 38% 0 in
14:09 82.6 °F 54.9 °F 29.9 in NNE 6.2 mph 12 mph 38.8% 0 in
14:14 82.8 °F 55.6 °F 29.9 in NNE 6.2 mph 12.7 mph 39.4% 0 in
14:19 82.8 °F 55.2 °F 29.9 in NNE 6.3 mph 13 mph 39% 0 in
14:24 82.8 °F 55.6 °F 29.9 in NE 6.9 mph 13 mph 39.4% 0 in
14:29 82.9 °F 56.1 °F 29.9 in NE 6.8 mph 12 mph 40% 0 in
14:34 83.1 °F 56.5 °F 29.9 in NE 6.2 mph 14 mph 40.3% 0 in
14:39 83.1 °F 56.8 °F 29.9 in NE 6.4 mph 14 mph 40.7% 0 in
14:44 82.9 °F 56.7 °F 29.9 in NE 7.4 mph 13 mph 40.7% 0 in
14:49 83.1 °F 57 °F 29.9 in NE 7.5 mph 12.7 mph 41.1% 0 in
14:54 83.3 °F 57.2 °F 29.9 in NE 7.6 mph 13 mph 41.2% 0 in
14:59 83.5 °F 57.4 °F 29.9 in NE 7.3 mph 12 mph 41% 0 in
15:04 83.7 °F 57.4 °F 29.9 in NE 6.2 mph 11.8 mph 40.9% 0 in
15:09 83.8 °F 57.9 °F 29.9 in NE 6.4 mph 12 mph 41.3% 0 in
15:14 83.8 °F 57.6 °F 29.9 in NE 7.4 mph 15 mph 41% 0 in
15:19 83.8 °F 58.1 °F 29.9 in NE 7.4 mph 15 mph 41.6% 0 in
15:24 84 °F 57.7 °F 29.9 in NE 7.4 mph 15 mph 40.9% 0 in
15:29 84 °F 56.8 °F 29.9 in NE 7.6 mph 15 mph 39.6% 0 in
15:34 84 °F 56.1 °F 29.9 in NE 8.5 mph 15 mph 38.6% 0 in
15:39 84 °F 56.1 °F 29.9 in NE 8.6 mph 16.3 mph 38.7% 0 in
15:44 84 °F 56.3 °F 29.9 in NE 9.2 mph 16 mph 38.8% 0 in
15:49 84 °F 55.9 °F 29.9 in NE 9.2 mph 16.1 mph 38.3% 0 in
15:54 84 °F 56.5 °F 29.9 in NE 9.2 mph 16 mph 39% 0 in
15:59 83.8 °F 56.5 °F 29.9 in NE 9.4 mph 17.5 mph 39.3% 0 in
16:04 83.7 °F 56.7 °F 29.9 in NE 10 mph 17 mph 39.8% 0 in
16:09 83.7 °F 56.5 °F 29.9 in NE 9.9 mph 16.1 mph 39.7% 0 in
16:14 83.3 °F 56.3 °F 29.9 in NE 9.7 mph 18.4 mph 39.9% 0 in
16:19 83.1 °F 56.3 °F 29.9 in NE 9.9 mph 18 mph 40% 0 in
16:24 83.5 °F 56.1 °F 29.9 in NE 10.7 mph 14 mph 39.3% 0 in
16:29 83.3 °F 56.1 °F 29.9 in NE 10.6 mph 17.5 mph 39.4% 0 in
16:34 83.1 °F 56.3 °F 29.9 in NE 10 mph 17 mph 40% 0 in
16:39 82.9 °F 56.5 °F 29.9 in NE 10 mph 16.3 mph 40.6% 0 in
16:44 82.8 °F 56.7 °F 29.9 in NE 10.2 mph 16.3 mph 41.1% 0 in
16:49 82.8 °F 57.4 °F 29.9 in NE 10.3 mph 18.4 mph 42.1% 0 in
16:54 82.4 °F 57.7 °F 29.9 in NE 10.7 mph 18.4 mph 42.9% 0 in
16:59 82.2 °F 58.3 °F 29.9 in NE 10.8 mph 18.5 mph 44.4% 0 in
17:04 82 °F 59 °F 29.9 in NE 11.4 mph 19 mph 45.7% 0 in
17:09 82 °F 59 °F 29.9 in NE 11.2 mph 18.4 mph 45.7% 0 in
17:14 81.7 °F 58.5 °F 29.9 in NE 10.2 mph 19.2 mph 45.2% 0 in
17:19 81.5 °F 57.7 °F 29.9 in NE 10.2 mph 20 mph 44.5% 0 in
17:24 81.3 °F 57.4 °F 29.9 in NE 10 mph 20 mph 44% 0 in
17:29 81.1 °F 57.2 °F 29.9 in NE 10 mph 16 mph 44.1% 0 in
17:34 81.1 °F 57.6 °F 29.9 in NE 10.2 mph 17.5 mph 44.8% 0 in
17:39 80.8 °F 57.9 °F 29.9 in NE 10.2 mph 17 mph 45.6% 0 in
17:44 80.6 °F 57.7 °F 29.9 in NE 10 mph 16.1 mph 45.7% 0 in
17:49 80.4 °F 57.6 °F 29.9 in NE 9.9 mph 17.3 mph 45.8% 0 in
17:54 80.2 °F 57.6 °F 29.9 in NE 9.7 mph 18.5 mph 46% 0 in
17:59 80.1 °F 57.6 °F 29.9 in NE 9.7 mph 19 mph 46.3% 0 in
18:04 80.1 °F 57.9 °F 29.9 in NE 9.7 mph 15 mph 47% 0 in
18:09 79.9 °F 58.1 °F 29.9 in NE 9.7 mph 15 mph 47.7% 0 in
18:14 79.5 °F 58.8 °F 29.9 in NE 9.7 mph 15 mph 49% 0 in
18:19 79.3 °F 58.6 °F 29.9 in NE 9.5 mph 14 mph 49% 0 in
18:24 79.2 °F 58.8 °F 29.9 in NE 8.7 mph 16.1 mph 49.8% 0 in
18:29 79 °F 58.8 °F 29.9 in NE 8.8 mph 16 mph 50% 0 in
18:34 78.6 °F 58.5 °F 29.9 in NE 9.7 mph 16.1 mph 50.1% 0 in
18:39 78.6 °F 59 °F 29.9 in NE 9.5 mph 15 mph 51% 0 in
18:44 78.4 °F 58.8 °F 29.9 in NE 8.7 mph 15 mph 51% 0 in
18:49 78.3 °F 58.5 °F 29.9 in NE 8.7 mph 15 mph 50.9% 0 in
18:54 78.1 °F 58.5 °F 29.9 in NE 8.7 mph 14 mph 51% 0 in
18:59 77.9 °F 58.5 °F 29.9 in NE 8.4 mph 13.5 mph 51.5% 0 in
19:04 77.5 °F 58.8 °F 29.9 in NE 7.4 mph 14 mph 52.5% 0 in
19:09 77.4 °F 59.2 °F 29.9 in NE 7.5 mph 13 mph 53.6% 0 in
19:14 77.2 °F 59.7 °F 29.9 in NE 7.6 mph 13.8 mph 55.1% 0 in
19:19 76.6 °F 60.1 °F 29.9 in NE 7.8 mph 14 mph 56.6% 0 in
19:24 76.5 °F 60.6 °F 29.9 in NE 8.5 mph 14 mph 57.8% 0 in
19:29 76.3 °F 61 °F 29.9 in NE 8.4 mph 14 mph 59% 0 in
19:34 76.1 °F 61 °F 29.9 in NE 8.1 mph 13.8 mph 59.9% 0 in
19:39 75.7 °F 61.3 °F 29.9 in NE 8.1 mph 14 mph 61% 0 in
19:44 75.7 °F 61.7 °F 29.9 in NE 8.5 mph 13 mph 62% 0 in
19:49 75.6 °F 61.9 °F 29.9 in NE 8.4 mph 15.2 mph 62.7% 0 in
19:54 75.4 °F 62.4 °F 29.9 in NE 7.6 mph 15 mph 63.9% 0 in
19:59 75.2 °F 62.4 °F 29.9 in NE 7.6 mph 13 mph 64.5% 0 in
20:04 74.8 °F 62.2 °F 29.9 in NE 7.4 mph 12.7 mph 64.6% 0 in
20:09 74.8 °F 61.5 °F 29.9 in NE 7.2 mph 13 mph 63.5% 0 in
20:14 74.7 °F 61.2 °F 29.9 in NE 6.4 mph 12 mph 63% 0 in
20:19 74.5 °F 61.2 °F 29.9 in NE 6.4 mph 10 mph 63% 0 in
20:24 74.5 °F 61.3 °F 29.9 in NE 6.2 mph 12.7 mph 63.7% 0 in
20:29 74.3 °F 61.7 °F 29.9 in NE 6.2 mph 13 mph 64.7% 0 in
20:34 74.1 °F 61.9 °F 29.9 in NE 6.2 mph 10.4 mph 65.8% 0 in
20:39 73.9 °F 62.1 °F 29.9 in NE 6.2 mph 10.4 mph 66.7% 0 in
20:44 73.8 °F 62.1 °F 29.9 in NE 6.4 mph 10.4 mph 67% 0 in
20:49 73.6 °F 62.2 °F 29.9 in NE 6.3 mph 10 mph 67.7% 0 in
20:54 73.4 °F 62.2 °F 29.9 in NE 5.4 mph 9.2 mph 68.3% 0 in
20:59 73.4 °F 62.6 °F 29.9 in NE 5.4 mph 10.4 mph 69% 0 in
21:04 73.4 °F 62.6 °F 29.9 in NE 5.4 mph 10 mph 69% 0 in
21:09 73.6 °F 62.8 °F 29.9 in NE 5.3 mph 9 mph 69% 0 in
21:14 73.4 °F 63 °F 29.9 in NE 4.7 mph 7 mph 70% 0 in
21:19 73.4 °F 63.1 °F 30 in NE 4.7 mph 8.1 mph 70.4% 0 in
21:24 73 °F 63.1 °F 30 in NE 4.7 mph 8.1 mph 71% 0 in
21:29 73 °F 63.3 °F 30 in ENE 4.7 mph 8.1 mph 71.6% 0 in
21:34 72.9 °F 63.1 °F 30 in ENE 4.3 mph 8 mph 71.7% 0 in
21:39 72.7 °F 63.1 °F 30 in NE 4.2 mph 6.4 mph 72% 0 in
21:44 72.5 °F 63 °F 30 in NE 3.1 mph 7.4 mph 72% 0 in
21:49 72.3 °F 62.8 °F 30 in NE 3.2 mph 7 mph 72% 0 in
21:54 72.1 °F 63 °F 30 in NE 4 mph 6.2 mph 72.8% 0 in
21:59 72.1 °F 63 °F 30 in NE 4 mph 6.2 mph 73% 0 in
22:04 72 °F 62.8 °F 30 in NE 4 mph 6.2 mph 73.1% 0 in
22:09 71.8 °F 63 °F 30 in NE 4 mph 6.9 mph 74% 0 in
22:14 71.8 °F 63 °F 30 in NE 4 mph 7 mph 74.1% 0 in
22:19 71.8 °F 63 °F 30 in NE 4 mph 6.2 mph 74% 0 in
22:24 71.4 °F 63 °F 30 in NE 3.6 mph 6 mph 74.6% 0 in
22:29 71.4 °F 63.1 °F 30 in ENE 3.4 mph 5 mph 75% 0 in
22:34 71.2 °F 63 °F 30 in Este 2.4 mph 5 mph 75% 0 in
22:39 71.2 °F 63 °F 30 in NNE 2.3 mph 4 mph 75% 0 in
22:44 71.1 °F 62.8 °F 30 in North 1.8 mph 3.6 mph 75% 0 in
22:49 70.9 °F 62.6 °F 30 in North 1.9 mph 4 mph 75% 0 in
22:54 70.7 °F 62.4 °F 30 in NNE 2 mph 4 mph 75.4% 0 in
22:59 70.5 °F 62.6 °F 30 in NNE 1.9 mph 2.4 mph 76% 0 in
23:04 70.5 °F 62.6 °F 30 in NNE 1.4 mph 2.4 mph 76% 0 in
23:09 70.3 °F 62.6 °F 30 in NNE 1.4 mph 3.6 mph 76.6% 0 in
23:14 70.3 °F 62.8 °F 30 in NNE 1.4 mph 4.6 mph 77% 0 in
23:19 70.2 °F 62.6 °F 30 in NNE 1.5 mph 5 mph 77% 0 in
23:24 70.2 °F 62.6 °F 30 in NE 2 mph 4.7 mph 77% 0 in
23:29 70 °F 62.4 °F 30 in NE 2.1 mph 5 mph 77% 0 in
23:34 70 °F 62.4 °F 30 in NE 2.4 mph 5 mph 77% 0 in
23:39 70 °F 62.4 °F 30 in NE 2.4 mph 5 mph 77% 0 in
23:44 70 °F 62.4 °F 30 in NE 2 mph 3.5 mph 77% 0 in
23:49 70 °F 62.4 °F 30 in NE 2 mph 3 mph 77% 0 in
23:54 69.8 °F 62.1 °F 30 in NE 1.8 mph 3 mph 76.4% 0 in
23:59 69.6 °F 61.3 °F 30 in NE 1.7 mph 3 mph 75.2% 0 in
Murcia-Puente Tocinos, España
Compliments of Weather Underground - 3.25 mb

La estación de MeteoMurcia.com, publica sus datos en los siguientes proyectos:

Weather Underground PWS IMURCIAP2 Meteoclimatic www.awekas.at

W3Counter
Web Analytics